North Springfield, VT

11:55 PM EDT on June 01, 2015 (GMT -0400)
Hartness State | | Change Station
CLOSE
Current Station
Airport
Location: Springfield,
Elevation: 574 ft
Nearby Weather Stations

Elev 574 ft 43.34 °N, 72.52 °W | Updated 1 hour ago

Overcast
Overcast
47 °F
Feels Like 47 °F
N
0
Wind Variable Wind from North

Today
High -- | Low -- °F
--% Chance of Precip.
Yesterday
High -- | Low -- °F
Precip. -- in
5:12 AM 8:23 PM
Full, 100% visible
Pressure 30.29 in
Visibility 10.0 miles
Clouds Mostly Cloudy 2700 ft
Overcast 3300 ft
Dew Point 45 °F
Humidity 93%
Rainfall 0.79 in
Snow Depth Not available.
UV 0 out of 12
Pollen 1.00 out of 12
Air Quality Not available.
Flu Activity Sporadic
METAR KVSF 020254Z AUTO 00000KT 10SM BKN027 OVC033 08/07 A3027 RMK AO2 RAE24 SLP255 P0001 60002 T00830072 50000 TSNO

More Conditions Fewer Conditions

Pressure 30.29 in
Visibility 10.0 miles
Clouds Mostly Cloudy 2700 ft
Overcast 3300 ft
Dew Point 45 °F
Humidity 93%
Rainfall 0.79 in
Snow Depth Not available.
UV 0 out of 12
Pollen 1.00 out of 12
Air Quality Not available.
Flu Activity Sporadic
METAR KVSF 020254Z AUTO 00000KT 10SM BKN027 OVC033 08/07 A3027 RMK AO2 RAE24 SLP255 P0001 60002 T00830072 50000 TSNO

More Conditions Fewer Conditions

10-Day Weather Forecast

Almanac

Astronomy

Jun. 01, 2015 Rise Set
Actual Time
Civil Twilight
Nautical Twilight
Astronomical Twilight
Moon
Length of Visible Light
Length of Day
Tomorrow will be .
, % of the Moon is Illuminated

Today's Extremes

State Highs State Lows

Community

WunderPhotos

Upload Photos

1,825,883 photos uploaded!

WunderBlogs® & News

Nearby

Air Quality

  Air Quality AQ Index Pollutant
Not available.

Snow Depth

Station Depth Elevation

Earthquake Activity

City Distance Mag. Time & Date
Minimum magnitude displayed is 2.5.

Coastal Water Temperatures

Place Temperature

Stations

Nearby Weather Stations

Station Location Temp. Windchill Dew Point Humidity Wind Precip. Elev Updated Type